Latest Weather Observations for Oakey

IDQ60801

Issued at 5:32 am EST Friday 9 December 2016 (issued every 30 minutes, with the page automatically refreshed every 10 minutes)

About weather observations | Map of weather stations | Latest weather observations for QLD | Other Formats
Station Details ID: 041359 Name: OAKEY AERO Lat: -27.40 Lon: 151.74 Height: 405.69 m
Data from the previous 72 hours. | See also: Recent months at Oakey
Date/Time
EST
Temp
°C
App
Temp
°C
Dew
Point
°C
Rel
Hum
%
Delta-T
°C
Wind Press
QNH
hPa
Press
MSL
hPa
Rain since
9am
mm
Dir  Spd
km/h
Gust
km/h
Spd
kts
Gust
kts
09/05:00am 20.7 20.3 19.4 92 0.8 WNW 20 26 11 14 1011.9 1009.8 5.6
09/04:30am 20.7 20.0 19.4 92 0.8 NW 22 32 12 17 1011.6 1009.4 5.6
09/04:00am 20.8 19.6 19.3 91 1.0 WNW 24 30 13 16 1011.6 1009.4 5.4
09/03:30am 21.1 20.4 18.7 86 1.5 WNW 20 28 11 15 1011.2 1009.0 5.2
09/03:00am 21.7 21.0 18.3 81 2.2 WNW 19 24 10 13 1010.9 1008.7 5.2
09/02:30am 21.6 21.9 18.8 84 1.8 WNW 15 19 8 10 1011.0 1008.8 5.2
09/02:00am 21.3 22.3 18.7 85 1.7 WNW 11 15 6 8 1011.0 1008.8 5.2
09/01:30am 21.5 20.7 18.5 83 1.9 WNW 20 26 11 14 1011.6 1009.4 5.2
09/01:00am 22.2 21.6 18.8 81 2.2 WNW 20 30 11 16 1012.0 1009.9 5.0
09/12:30am 23.0 23.9 19.2 79 2.5 NW 13 19 7 10 1012.2 1010.1 4.8
09/12:00am 23.0 23.3 19.6 81 2.2 WNW 17 19 9 10 1012.5 1010.4 4.8
 
Date/Time
EST
Temp
°C
App
Temp
°C
Dew
Point
°C
Rel
Hum
%
Delta-T
°C
Wind Press
QNH
hPa
Press
MSL
hPa
Rain since
9am
mm
Dir  Spd
km/h
Gust
km/h
Spd
kts
Gust
kts
08/11:30pm 24.3 24.3 18.9 72 3.5 WNW 17 20 9 11 1012.3 1010.2 4.4
08/11:00pm 24.5 25.4 19.3 73 3.4 NW 13 15 7 8 1012.0 1009.9 4.4
08/10:30pm 25.2 26.1 19.3 70 3.8 WNW 13 20 7 11 1011.9 1009.8 4.4
08/10:00pm 24.2 27.4 21.3 84 1.9 WSW 6 9 3 5 1011.9 1009.8 4.4
08/09:30pm 24.4 28.8 21.3 83 2.1 CALM 0 0 0 0 1011.6 1009.4 4.4
08/09:00pm 24.3 27.4 21.4 84 1.9 ENE 7 9 4 5 1011.0 1008.8 4.4
08/08:30pm 24.7 28.5 21.6 83 2.1 N 4 7 2 4 1011.0 1008.8 4.4
08/08:00pm 25.0 28.4 20.9 78 2.7 NW 4 7 2 4 1010.7 1008.5 4.4
08/07:30pm 25.0 27.9 20.7 77 2.9 NW 6 7 3 4 1010.5 1008.3 4.4
08/07:00pm 24.9 26.5 20.8 78 2.7 NE 13 15 7 8 1010.4 1008.2 4.4
08/06:30pm 25.7 27.3 20.0 71 3.8 W 11 17 6 9 1009.8 1007.7 4.4
08/06:00pm 25.7 26.9 19.8 70 3.9 WNW 13 17 7 9 1008.9 1006.7 4.4
08/05:30pm 26.6 26.6 19.7 66 4.5 WNW 19 22 10 12 1008.5 1006.3 4.4
08/05:00pm 24.7 26.4 21.0 80 2.5 NNW 13 15 7 8 1008.6 1006.4 4.4
08/04:36pm 23.5 24.2 20.4 83 2.0 N 17 24 9 13 1008.2 1006.0 4.4
08/04:30pm 22.9 21.8 19.5 81 2.2 NNW 24 33 13 18 1008.2 1006.0 4.4
08/04:00pm 24.8 22.8 19.2 71 3.6 WSW 28 57 15 31 1008.7 1006.5 1.2
08/03:30pm 30.0 27.7 18.4 49 7.6 WNW 28 35 15 19 1008.6 1006.4 0.8
08/03:00pm 31.3 30.1 18.3 46 8.5 NNW 22 35 12 19 1008.7 1006.5 0.8
08/02:30pm 31.8 30.2 18.4 45 8.8 N 24 33 13 18 1009.1 1006.9 0.8
08/02:00pm 31.0 29.6 18.7 48 8.1 N 24 35 13 19 1009.7 1007.6 0.8
08/01:30pm 29.3 31.0 21.0 61 5.6 NE 13 19 7 10 1010.2 1008.1 0.8
08/01:00pm 27.0 29.5 21.1 70 4.0 E 9 13 5 7 1010.9 1008.7 0.8
08/12:30pm 24.6 26.0 20.3 77 2.8 SSW 13 17 7 9 1011.7 1009.5 0.8
08/12:00pm 24.8 27.1 22.1 85 1.8 WSW 13 20 7 11 1013.4 1011.2 0.6
08/11:30am 24.7 25.2 20.8 79 2.6 W 19 24 10 13 1013.7 1011.5 0.2
08/11:00am 26.2 26.1 19.6 67 4.3 W 19 22 10 12 1013.7 1011.5 0.0
08/10:30am 27.2 29.3 19.3 62 5.2 NNW 7 13 4 7 1013.6 1011.4 0.0
08/10:00am 26.0 27.6 19.2 66 4.4 NE 9 15 5 8 1013.6 1011.4 0.0
08/09:30am 25.4 26.2 19.1 68 4.1 NE 13 17 7 9 1013.6 1011.4 0.0
08/09:00am 25.2 25.3 19.1 69 4.0 NE 17 24 9 13 1013.9 1011.7 0.2
08/08:30am 25.0 24.6 18.9 69 4.0 ENE 19 24 10 13 1014.0 1011.8 0.2
08/08:00am 24.6 24.8 19.4 73 3.4 NE 17 24 9 13 1014.1 1012.0 0.2
08/07:30am 23.6 23.1 19.1 76 2.9 NE 20 24 11 13 1013.9 1011.7 0.2
08/07:00am 23.4 23.0 19.3 78 2.7 ENE 20 26 11 14 1013.9 1011.7 0.2
08/06:30am 22.8 22.1 19.4 81 2.2 ENE 22 26 12 14 1013.9 1011.7 0.2
08/06:00am 22.5 22.8 19.5 83 1.9 ENE 17 22 9 12 1013.4 1011.2 0.2
08/05:58am 22.5 22.8 19.5 83 1.9 ENE 17 22 9 12 1013.4 1011.2 0.2
08/05:30am 22.1 22.4 19.5 85 1.7 E 17 19 9 10 1013.1 1010.9 0.2
08/05:17am 22.0 22.2 19.4 85 1.7 E 17 22 9 12 1013.2 1011.0 0.2
08/05:06am 21.9 21.5 19.3 85 1.7 E 20 30 11 16 1013.0 1010.8 0.2
08/05:00am 21.9 20.7 19.3 85 1.7 ENE 24 33 13 18 1013.0 1010.8 0.2
08/04:30am 22.1 21.9 19.3 84 1.8 E 19 24 10 13 1013.0 1010.8 0.2
08/04:00am 22.1 21.6 19.1 83 1.9 ENE 20 26 11 14 1012.8 1010.7 0.2
08/03:30am 21.9 21.6 19.1 84 1.8 ENE 19 24 10 13 1013.2 1011.0 0.2
08/03:00am 21.9 20.9 18.9 83 1.9 E 22 28 12 15 1013.2 1011.0 0.2
08/02:32am 22.1 21.5 18.9 82 2.1 ENE 20 26 11 14 1013.3 1011.1 0.2
08/02:30am 22.1 21.7 18.9 82 2.1 ENE 19 22 10 12 1013.4 1011.2 0.2
08/02:00am 22.3 22.3 18.9 81 2.2 NE 17 20 9 11 1013.6 1011.4 0.2
08/01:30am 22.5 22.0 19.1 81 2.2 ENE 20 24 11 13 1013.7 1011.5 0.2
08/01:13am 22.5 22.2 19.1 81 2.2 E 19 26 10 14 1013.7 1011.5 0.2
08/01:00am 22.7 21.9 19.3 81 2.2 ENE 22 30 12 16 1014.0 1011.8 0.2
08/12:36am 22.9 22.6 19.5 81 2.2 ENE 20 28 11 15 1014.4 1012.3 0.2
08/12:30am 22.9 23.2 19.7 82 2.1 ENE 17 28 9 15 1014.5 1012.4 0.2
08/12:00am 22.8 22.1 19.6 82 2.1 ENE 22 32 12 17 1014.5 1012.4 0.2
 
Date/Time
EST
Temp
°C
App
Temp
°C
Dew
Point
°C
Rel
Hum
%
Delta-T
°C
Wind Press
QNH
hPa
Press
MSL
hPa
Rain since
9am
mm
Dir  Spd
km/h
Gust
km/h
Spd
kts
Gust
kts
07/11:30pm 23.0 21.4 20.0 83 2.0 E 28 35 15 19 1014.8 1012.7 0.2
07/11:00pm 23.1 21.4 19.9 82 2.1 E 28 37 15 20 1015.3 1013.2 0.2
07/10:30pm 23.2 21.2 20.0 82 2.1 E 30 41 16 22 1015.3 1013.2 0.2
07/10:00pm 23.4 21.3 19.8 80 2.4 E 30 39 16 21 1015.2 1013.1 0.2
07/09:30pm 23.9 23.6 19.6 77 2.8 ESE 20 26 11 14 1014.8 1012.7 0.2
07/09:00pm 24.7 24.1 19.8 74 3.2 E 22 30 12 16 1014.5 1012.4 0.2
07/08:30pm 26.4 26.8 20.7 71 3.8 E 19 22 10 12 1014.6 1012.5 0.2
07/08:00pm 26.9 27.2 20.5 68 4.3 ESE 19 24 10 13 1015.0 1012.9 0.2
07/07:30pm 27.2 28.7 19.8 64 4.9 E 11 15 6 8 1014.4 1012.3 0.2
07/07:00pm 27.6 29.9 19.9 63 5.1 SSE 7 7 4 4 1014.4 1012.3 0.2
07/06:30pm 27.8 29.9 19.3 60 5.6 SSE 7 9 4 5 1014.0 1011.8 0.2
07/06:00pm 28.1 29.6 18.8 57 6.1 S 9 13 5 7 1013.0 1010.8 0.2
07/05:30pm 29.2 29.4 17.7 50 7.4 S 13 17 7 9 1012.7 1010.6 0.2
07/05:00pm 29.7 28.6 17.8 48 7.7 SSW 20 30 11 16 1012.1 1010.0 0.2
07/04:30pm 30.6 28.5 18.0 47 8.2 SW 26 35 14 19 1011.8 1009.6 0.2
07/04:00pm 30.2 29.6 18.9 50 7.4 SW 20 28 11 15 1011.7 1009.5 0.2
07/03:30pm 30.6 29.3 19.0 50 7.7 WSW 24 30 13 16 1012.2 1010.1 0.2
07/03:00pm 30.6 29.9 18.3 47 8.0 W 19 24 10 13 1012.4 1010.3 0.2
07/02:30pm 30.7 30.8 19.1 50 7.7 W 17 22 9 12 1012.7 1010.6 0.2
07/02:00pm 30.7 29.9 18.4 47 8.1 W 20 28 11 15 1013.1 1010.9 0.2
07/01:30pm 30.5 29.7 19.2 51 7.5 WNW 22 28 12 15 1013.1 1010.9 0.2
07/01:00pm 30.9 30.8 19.6 51 7.5 NW 19 24 10 13 1012.7 1010.6 0.2
07/12:30pm 31.9 32.4 20.8 51 7.5 WNW 19 28 10 15 1013.1 1010.9 0.2
07/12:00pm 30.6 31.7 19.6 51 7.3 NNW 13 24 7 13 1013.3 1011.1 0.2
07/11:30am 30.3 32.3 20.0 54 6.9 NW 9 17 5 9 1013.6 1011.4 0.2
07/11:00am 29.1 30.6 19.7 57 6.2 N 11 19 6 10 1014.2 1012.1 0.2
07/10:30am 27.5 30.1 20.1 64 4.9 N 6 11 3 6 1014.8 1012.7 0.2
07/10:00am 26.0 28.3 19.9 69 4.0 NNE 7 15 4 8 1015.1 1013.0 0.2
07/09:30am 25.3 27.2 20.5 75 3.2 NE 11 15 6 8 1015.2 1013.1 0.2
07/09:00am 24.5 26.1 20.8 80 2.5 NE 13 15 7 8 1015.4 1013.3 1.0
07/08:30am 23.8 25.1 20.9 84 1.9 NE 15 19 8 10 1015.4 1013.3 1.0
07/08:00am 23.4 24.1 20.5 84 1.9 NE 17 22 9 12 1015.0 1012.9 1.0
07/07:30am 23.1 24.1 21.0 88 1.4 NE 17 20 9 11 1015.3 1013.2 1.0
07/07:00am 22.8 24.5 20.9 89 1.3 NNE 13 17 7 9 1015.6 1013.4 1.0
07/06:30am 22.7 25.0 20.6 88 1.4 NE 9 11 5 6 1015.7 1013.5 1.0
07/06:00am 22.5 24.7 20.4 88 1.4 NNE 9 11 5 6 1015.6 1013.4 1.0
07/05:30am 22.5 26.3 20.2 87 1.5 CALM 0 0 0 0 1015.4 1013.3 0.8
07/05:00am 22.0 23.7 20.1 89 1.2 SSE 11 15 6 8 1014.6 1012.5 0.8
07/04:30am 22.5 23.7 19.9 85 1.7 S 13 17 7 9 1014.5 1012.4 0.6
07/04:00am 23.0 23.3 19.6 81 2.2 SSW 17 20 9 11 1014.2 1012.1 0.4
07/03:30am 24.8 24.2 18.5 68 4.1 W 19 22 10 12 1014.6 1012.5 0.0
07/03:00am 25.3 25.9 18.5 66 4.4 SW 13 19 7 10 1013.6 1011.4 0.0
07/02:30am 25.4 26.4 18.6 66 4.4 SSW 11 15 6 8 1013.5 1011.3 0.0
07/02:00am 25.6 25.6 19.0 67 4.3 WSW 17 20 9 11 1013.4 1011.2 0.0
07/01:30am 26.1 25.1 18.0 61 5.2 W 20 28 11 15 1013.1 1010.9 0.0
07/01:00am 26.1 26.7 16.9 57 5.8 NW 9 11 5 6 1013.5 1011.3 0.0
07/12:30am 26.5 26.7 16.7 55 6.2 N 11 13 6 7 1013.5 1011.3 0.0
07/12:00am 27.8 28.7 16.7 50 7.0 NW 7 11 4 6 1013.9 1011.7 0.0
 
Date/Time
EST
Temp
°C
App
Temp
°C
Dew
Point
°C
Rel
Hum
%
Delta-T
°C
Wind Press
QNH
hPa
Press
MSL
hPa
Rain since
9am
mm
Dir  Spd
km/h
Gust
km/h
Spd
kts
Gust
kts
06/11:30pm 27.6 28.4 17.2 53 6.6 ESE 9 11 5 6 1014.0 1011.8 0.0
06/11:00pm 28.0 28.5 16.6 50 7.2 NE 9 11 5 6 1012.7 1010.6 0.0
06/10:30pm 28.3 28.4 16.6 49 7.4 NE 11 13 6 7 1012.0 1009.9 0.0
06/10:00pm 29.2 28.2 16.7 46 8.0 NE 17 20 9 11 1011.9 1009.8 0.0
06/09:30pm 29.6 29.1 16.8 46 8.2 NE 15 19 8 10 1012.0 1009.9 0.0
06/09:00pm 30.3 29.3 16.7 44 8.7 NNE 17 22 9 12 1011.7 1009.5 0.0
06/08:30pm 30.1 29.1 16.5 44 8.6 NE 17 20 9 11 1011.8 1009.6 0.0
06/08:00pm 30.6 29.6 16.6 43 8.9 NE 17 19 9 10 1011.8 1009.6 0.0
06/07:30pm 30.9 30.6 16.5 42 9.2 NNE 13 17 7 9 1011.9 1009.8 0.0
06/07:00pm 31.0 30.8 16.6 42 9.2 N 13 15 7 8 1011.5 1009.3 0.0
06/06:30pm 32.8 31.9 15.8 36 10.8 N 15 17 8 9 1010.9 1008.7 0.0
06/06:00pm 33.9 32.2 16.3 35 11.3 N 20 26 11 14 1010.6 1008.4 0.0
06/05:30pm 34.4 32.9 16.3 34 11.6 N 19 24 10 13 1010.5 1008.3 0.0
06/05:00pm 34.7 32.2 16.1 33 11.9 NNW 24 32 13 17 1010.6 1008.4 0.0
06/04:30pm 35.2 33.2 16.5 33 12.1 NW 22 33 12 18 1010.4 1008.2 0.0
06/04:00pm 35.5 31.9 15.3 30 12.9 NW 28 37 15 20 1010.5 1008.3 0.0
06/03:30pm 36.3 33.3 15.9 29 13.1 NW 26 35 14 19 1010.9 1008.7 0.0
06/03:00pm 36.2 33.2 15.9 30 13.1 NW 26 39 14 21 1011.3 1009.1 0.0
06/02:30pm 36.3 33.7 15.9 29 13.1 WNW 24 33 13 18 1011.6 1009.4 0.0
06/02:00pm 36.0 34.3 17.2 33 12.3 N 22 35 12 19 1011.9 1009.8 0.0
06/01:30pm 34.6 33.0 16.4 33 11.7 N 20 28 11 15 1012.6 1010.5 0.0
06/01:00pm 34.1 32.8 16.9 36 11.1 N 19 32 10 17 1013.3 1011.1 0.0
06/12:30pm 33.6 31.4 16.9 37 10.8 N 24 37 13 20 1014.0 1011.8 0.0
06/12:00pm 33.6 32.8 18.1 39 10.2 NNW 19 33 10 18 1014.4 1012.3 0.0
06/11:30am 32.1 31.4 18.7 45 8.8 NNE 20 30 11 16 1015.2 1013.1 0.0
06/11:00am 31.1 30.0 17.8 45 8.6 N 20 30 11 16 1016.1 1013.9 0.0
06/10:30am 29.7 27.5 17.8 48 7.7 NNE 26 35 14 19 1016.4 1014.3 0.0
06/10:00am 29.2 26.6 17.7 50 7.4 NE 28 37 15 20 1016.7 1014.6 0.0
06/09:30am 28.2 26.3 18.6 56 6.3 NNE 26 35 14 19 1017.1 1015.0 0.0
06/09:00am 27.1 24.1 18.7 60 5.5 NE 32 44 17 24 1017.3 1015.2 0.0
06/08:30am 26.5 23.4 18.9 63 4.9 NE 33 43 18 23 1017.5 1015.4 0.0
06/08:00am 25.0 22.7 19.4 71 3.6 ENE 30 39 16 21 1018.0 1015.9 0.0
06/07:30am 25.2 23.2 20.0 73 3.4 ENE 30 39 16 21 1018.3 1016.1 0.0
06/07:19am 24.9 21.7 19.5 72 3.5 NE 35 43 19 23 1018.2 1016.0 0.0
06/07:00am 25.5 23.1 19.9 71 3.7 ENE 32 39 17 21 1017.7 1015.6 0.0
06/06:30am 24.1 20.7 19.0 73 3.3 ENE 35 46 19 25 1017.4 1015.3 0.0
06/06:00am 23.4 20.9 18.9 76 2.9 ENE 30 39 16 21 1017.0 1014.9 0.0

Other Formats:

Comma delimited format used in spreadsheet applications
http://www.bom.gov.au/fwo/IDQ60801/IDQ60801.94552.axf

JavaScript Object Notation format (JSON) in row-major order
http://www.bom.gov.au/fwo/IDQ60801/IDQ60801.94552.json